createdAt,value
2022-10-07T00:02:35.628Z,15.60
2022-10-07T00:06:42.708Z,15.50
2022-10-07T00:09:48.447Z,15.50
2022-10-07T00:12:53.439Z,15.40
2022-10-07T00:16:05.104Z,15.40
2022-10-07T00:19:13.938Z,15.30
2022-10-07T00:22:22.664Z,15.20
2022-10-07T00:25:28.635Z,15.30
2022-10-07T00:28:32.486Z,15.20
2022-10-07T00:31:41.670Z,15.20
2022-10-07T00:35:07.144Z,15.20
2022-10-07T00:38:12.287Z,15.20
2022-10-07T00:45:38.053Z,14.30
2022-10-07T00:48:44.069Z,15.30
2022-10-07T00:51:58.037Z,15.20
2022-10-07T00:55:11.297Z,15.20
2022-10-07T00:58:16.080Z,15.20
2022-10-07T01:01:24.097Z,15.10
2022-10-07T01:04:29.601Z,15.10
2022-10-07T01:07:39.045Z,15.00
2022-10-07T01:11:21.336Z,15.00
2022-10-07T01:15:06.048Z,15.00
2022-10-07T01:18:26.480Z,15.00
2022-10-07T01:21:47.507Z,14.90
2022-10-07T01:25:16.327Z,14.90
2022-10-07T01:29:01.746Z,14.90
2022-10-07T01:32:19.373Z,14.80
2022-10-07T01:35:55.606Z,14.80
2022-10-07T01:39:20.771Z,14.70
2022-10-07T01:42:28.028Z,14.70
2022-10-07T01:46:06.453Z,14.70
2022-10-07T01:49:40.952Z,14.70
2022-10-07T01:53:17.867Z,15.80
2022-10-07T01:56:58.982Z,14.70
2022-10-07T02:00:21.186Z,14.60
2022-10-07T02:04:11.048Z,14.90
2022-10-07T02:07:41.931Z,14.50
2022-10-07T02:11:10.358Z,14.50
2022-10-07T02:14:23.999Z,14.50
2022-10-07T02:17:36.059Z,14.60
2022-10-07T02:20:49.288Z,14.50
2022-10-07T02:23:57.978Z,14.50
2022-10-07T02:27:31.008Z,14.50
2022-10-07T02:30:41.374Z,14.50
2022-10-07T02:33:53.463Z,14.40
2022-10-07T02:37:27.830Z,14.40
2022-10-07T02:40:43.196Z,14.40
2022-10-07T02:43:59.276Z,14.40
2022-10-07T02:47:14.388Z,14.40
2022-10-07T02:50:26.987Z,14.40
2022-10-07T02:53:43.769Z,14.40
2022-10-07T02:56:52.697Z,14.40
2022-10-07T03:00:07.364Z,14.40
2022-10-07T03:03:18.017Z,14.40
2022-10-07T03:06:43.548Z,14.40
2022-10-07T03:10:13.215Z,14.40
2022-10-07T03:13:20.511Z,14.40
2022-10-07T03:16:28.378Z,14.40
2022-10-07T03:19:35.749Z,14.40
2022-10-07T03:23:02.050Z,14.30
2022-10-07T03:26:19.476Z,14.30
2022-10-07T03:29:47.210Z,14.30
2022-10-07T03:32:58.029Z,14.30
2022-10-07T03:36:30.387Z,14.30
2022-10-07T03:39:49.685Z,14.30
2022-10-07T03:43:18.995Z,14.30
2022-10-07T03:46:46.475Z,14.30
2022-10-07T03:50:21.949Z,14.30
2022-10-07T03:54:01.697Z,14.20
2022-10-07T03:57:50.227Z,14.30
2022-10-07T04:01:29.632Z,14.30
2022-10-07T04:05:10.911Z,14.30
2022-10-07T04:08:49.424Z,14.30
2022-10-07T04:11:59.852Z,14.30
2022-10-07T04:15:30.982Z,14.30
2022-10-07T04:18:38.701Z,14.30
2022-10-07T04:21:48.807Z,14.30
2022-10-07T04:25:21.803Z,14.20
2022-10-07T04:28:37.881Z,14.20
2022-10-07T04:32:08.837Z,14.20
2022-10-07T04:35:26.587Z,14.20
2022-10-07T04:38:35.851Z,14.20
2022-10-07T04:41:51.958Z,14.20
2022-10-07T04:45:22.565Z,14.20
2022-10-07T04:49:02.481Z,14.10
2022-10-07T04:52:45.603Z,14.10
2022-10-07T04:56:01.207Z,14.10
2022-10-07T04:59:22.427Z,14.10
2022-10-07T05:02:56.717Z,13.90
2022-10-07T05:06:19.408Z,14.00
2022-10-07T05:09:48.976Z,14.00
2022-10-07T05:13:22.524Z,14.00
2022-10-07T05:16:48.896Z,14.00
2022-10-07T05:20:09.070Z,14.00
2022-10-07T05:23:18.097Z,13.90
2022-10-07T05:26:40.384Z,13.90
2022-10-07T05:34:16.973Z,13.90
2022-10-07T05:38:43.247Z,13.90
2022-10-07T05:42:03.229Z,13.80
2022-10-07T05:49:36.631Z,13.90
2022-10-07T05:54:10.282Z,13.80
2022-10-07T05:57:50.891Z,13.90
2022-10-07T06:01:38.553Z,13.90
2022-10-07T06:05:37.462Z,13.90
2022-10-07T06:09:19.883Z,13.90
2022-10-07T06:13:21.683Z,14.00
2022-10-07T06:17:32.265Z,14.00
2022-10-07T06:25:13.728Z,14.10
2022-10-07T06:28:57.094Z,14.20
2022-10-07T06:32:21.043Z,14.20
2022-10-07T06:36:48.495Z,14.30
2022-10-07T06:41:12.818Z,13.50
2022-10-07T06:49:43.587Z,14.80
2022-10-07T06:57:59.182Z,15.20
2022-10-07T07:06:34.924Z,15.90
2022-10-07T07:10:42.815Z,16.20
2022-10-07T07:14:03.105Z,16.50
2022-10-07T07:17:51.153Z,16.60
2022-10-07T07:21:48.982Z,16.60
2022-10-07T07:25:52.597Z,16.60
2022-10-07T07:30:20.619Z,16.60
2022-10-07T07:34:11.269Z,16.60
2022-10-07T07:38:38.258Z,17.40
2022-10-07T07:46:46.117Z,16.70
2022-10-07T07:50:29.493Z,16.80
2022-10-07T07:54:08.741Z,16.80
2022-10-07T07:58:19.974Z,16.90
2022-10-07T08:02:22.927Z,17.00
2022-10-07T08:06:45.479Z,17.10
2022-10-07T08:10:36.563Z,17.30
2022-10-07T08:14:23.639Z,17.40
2022-10-07T08:18:16.768Z,17.60
2022-10-07T08:22:10.289Z,17.60
2022-10-07T08:26:09.761Z,17.80
2022-10-07T08:30:03.802Z,18.00
2022-10-07T08:34:23.158Z,18.10
2022-10-07T08:38:24.874Z,18.30
2022-10-07T08:42:34.735Z,18.40
2022-10-07T08:46:28.041Z,18.40
2022-10-07T08:50:40.724Z,18.50
2022-10-07T08:54:37.757Z,18.60
2022-10-07T09:03:22.762Z,18.70
2022-10-07T09:07:48.758Z,18.80
2022-10-07T09:12:02.790Z,18.80
2022-10-07T09:16:10.086Z,18.90
2022-10-07T09:20:07.337Z,19.00
2022-10-07T09:24:09.830Z,19.10
2022-10-07T09:28:54.336Z,19.10
2022-10-07T09:33:10.412Z,19.30
2022-10-07T09:37:44.052Z,19.40
2022-10-07T09:41:59.556Z,19.50
2022-10-07T09:46:20.026Z,19.60
2022-10-07T09:50:43.576Z,19.70
2022-10-07T09:55:02.101Z,19.70
2022-10-07T09:59:10.675Z,19.70
2022-10-07T10:03:43.181Z,19.70
2022-10-07T10:07:45.590Z,19.80
2022-10-07T10:12:13.610Z,19.60
2022-10-07T10:16:56.465Z,19.60
2022-10-07T10:21:14.518Z,19.60
2022-10-07T10:25:26.737Z,19.60
2022-10-07T10:29:36.135Z,19.50
2022-10-07T10:37:20.926Z,19.50
2022-10-07T10:40:33.762Z,19.60
2022-10-07T10:44:34.413Z,19.60
2022-10-07T10:48:42.210Z,19.60
2022-10-07T10:52:57.606Z,19.70
2022-10-07T10:56:50.394Z,19.70
2022-10-07T11:00:39.429Z,19.80
2022-10-07T11:04:27.749Z,19.80
2022-10-07T11:08:05.972Z,19.80
2022-10-07T11:11:25.436Z,19.80
2022-10-07T11:14:57.868Z,19.80
2022-10-07T11:18:59.613Z,19.80
2022-10-07T11:22:35.880Z,19.50
2022-10-07T11:26:15.051Z,20.00
2022-10-07T11:29:56.620Z,20.00
2022-10-07T11:33:34.209Z,20.00
2022-10-07T11:36:58.898Z,19.70
2022-10-07T11:40:29.181Z,20.10
2022-10-07T11:44:14.581Z,20.20
2022-10-07T11:47:39.315Z,20.10
2022-10-07T11:51:09.749Z,20.10
2022-10-07T11:54:49.968Z,20.10
2022-10-07T11:58:19.863Z,20.00
2022-10-07T12:02:16.303Z,20.00
2022-10-07T12:05:59.114Z,20.00
2022-10-07T12:10:25.885Z,20.00
2022-10-07T12:14:39.482Z,20.00
2022-10-07T12:18:59.830Z,20.00
2022-10-07T12:22:26.289Z,20.10
2022-10-07T12:25:59.068Z,20.90
2022-10-07T12:30:05.820Z,20.10
2022-10-07T12:34:36.190Z,20.00
2022-10-07T12:38:00.652Z,20.10
2022-10-07T12:41:47.673Z,20.10
2022-10-07T12:45:08.401Z,20.10
2022-10-07T12:48:32.199Z,20.20
2022-10-07T12:56:01.682Z,20.30
2022-10-07T13:00:17.051Z,20.30
2022-10-07T13:04:27.919Z,20.10
2022-10-07T13:09:07.744Z,20.30
2022-10-07T13:13:15.267Z,20.30
2022-10-07T13:21:43.283Z,20.30
2022-10-07T13:25:50.209Z,20.20
2022-10-07T13:29:55.880Z,20.10
2022-10-07T13:33:43.291Z,20.00
2022-10-07T13:37:05.976Z,19.90
2022-10-07T13:41:03.985Z,19.80
2022-10-07T13:44:50.273Z,19.70
2022-10-07T13:48:16.559Z,19.70
2022-10-07T13:51:46.843Z,20.00
2022-10-07T13:55:05.782Z,19.60
2022-10-07T13:58:30.304Z,19.70
2022-10-07T14:01:41.889Z,19.60
2022-10-07T14:05:45.769Z,19.70
2022-10-07T14:08:56.622Z,19.60
2022-10-07T14:12:37.479Z,19.60
2022-10-07T14:16:18.042Z,19.60
2022-10-07T14:22:53.456Z,19.60
2022-10-07T14:26:00.608Z,19.30
2022-10-07T14:29:23.699Z,20.10
2022-10-07T14:32:46.037Z,19.50
2022-10-07T14:35:50.993Z,19.40
2022-10-07T14:38:58.121Z,19.50
2022-10-07T14:42:01.641Z,19.40
2022-10-07T14:45:08.016Z,19.40
2022-10-07T14:48:15.017Z,19.50
2022-10-07T14:51:24.033Z,19.50
2022-10-07T14:54:28.187Z,19.80
2022-10-07T14:57:31.497Z,19.90
2022-10-07T15:00:51.827Z,20.00
2022-10-07T15:04:14.884Z,20.00
2022-10-07T15:07:36.969Z,19.90
2022-10-07T15:10:42.425Z,19.80
2022-10-07T15:13:47.727Z,19.80
2022-10-07T15:16:57.277Z,19.70
2022-10-07T15:23:15.055Z,19.50
2022-10-07T15:26:19.181Z,19.40
2022-10-07T15:29:22.742Z,19.40
2022-10-07T15:32:28.404Z,19.30
2022-10-07T15:35:35.718Z,19.20
2022-10-07T15:38:40.542Z,19.10
2022-10-07T15:41:45.197Z,19.10
2022-10-07T15:44:50.717Z,19.00
2022-10-07T15:47:58.179Z,18.90
2022-10-07T15:51:04.757Z,18.90
2022-10-07T15:54:11.712Z,18.80
2022-10-07T15:57:15.932Z,18.80
2022-10-07T16:00:20.019Z,18.80
2022-10-07T16:03:23.151Z,18.80
2022-10-07T16:06:30.089Z,18.70
2022-10-07T16:09:34.734Z,18.70
2022-10-07T16:12:37.887Z,18.70
2022-10-07T16:15:42.410Z,18.80
2022-10-07T16:18:48.014Z,18.70
2022-10-07T16:21:51.442Z,18.70
2022-10-07T16:24:56.294Z,18.70
2022-10-07T16:28:17.283Z,19.30
2022-10-07T16:31:20.909Z,19.00
2022-10-07T16:34:24.420Z,18.50
2022-10-07T16:37:29.266Z,18.60
2022-10-07T16:40:34.911Z,18.50
2022-10-07T16:43:38.209Z,18.40
2022-10-07T16:46:42.417Z,18.40
2022-10-07T16:49:46.642Z,18.30
2022-10-07T16:52:51.130Z,18.30
2022-10-07T16:55:56.402Z,18.00
2022-10-07T16:59:02.033Z,18.00
2022-10-07T17:02:06.824Z,18.10
2022-10-07T17:05:11.454Z,18.00
2022-10-07T17:08:16.551Z,17.90
2022-10-07T17:11:29.806Z,17.90
2022-10-07T17:14:33.675Z,17.80
2022-10-07T17:17:36.831Z,17.70
2022-10-07T17:20:40.991Z,17.70
2022-10-07T17:23:44.221Z,17.60
2022-10-07T17:26:50.198Z,17.60
2022-10-07T17:29:53.855Z,17.50
2022-10-07T17:32:57.416Z,17.50
2022-10-07T17:36:07.018Z,17.40
2022-10-07T17:39:10.559Z,17.30
2022-10-07T17:42:15.376Z,17.30
2022-10-07T17:45:18.521Z,17.40
2022-10-07T17:48:22.066Z,17.20
2022-10-07T17:51:28.835Z,17.20
2022-10-07T17:54:32.088Z,17.20
2022-10-07T17:57:36.550Z,17.00
2022-10-07T18:00:40.079Z,16.40
2022-10-07T18:03:45.711Z,17.10
2022-10-07T18:06:48.837Z,17.00
2022-10-07T18:09:52.537Z,17.10
2022-10-07T18:13:14.476Z,17.00
2022-10-07T18:16:18.782Z,17.00
2022-10-07T18:19:23.388Z,16.90
2022-10-07T18:22:26.869Z,17.00
2022-10-07T18:25:30.080Z,16.90
2022-10-07T18:28:37.946Z,16.90
2022-10-07T18:31:41.474Z,16.90
2022-10-07T18:34:44.611Z,16.80
2022-10-07T18:37:49.501Z,16.80
2022-10-07T18:40:53.368Z,16.90
2022-10-07T18:43:58.370Z,16.90
2022-10-07T18:47:01.663Z,16.90
2022-10-07T18:50:05.906Z,16.90
2022-10-07T18:53:09.028Z,17.00
2022-10-07T18:56:15.306Z,17.00
2022-10-07T18:59:22.121Z,17.70
2022-10-07T19:02:25.205Z,17.00
2022-10-07T19:05:33.680Z,17.00
2022-10-07T19:08:37.643Z,17.00
2022-10-07T19:11:41.011Z,17.00
2022-10-07T19:14:45.781Z,17.00
2022-10-07T19:17:49.281Z,17.00
2022-10-07T19:20:57.879Z,17.00
2022-10-07T19:24:02.401Z,17.00
2022-10-07T19:27:05.704Z,17.00
2022-10-07T19:30:11.653Z,17.00
2022-10-07T19:33:15.622Z,17.00
2022-10-07T19:36:21.945Z,17.00
2022-10-07T19:39:30.907Z,16.90
2022-10-07T19:42:34.951Z,17.10
2022-10-07T19:45:41.714Z,17.00
2022-10-07T19:48:46.099Z,16.80
2022-10-07T19:51:49.193Z,17.00
2022-10-07T19:54:52.367Z,16.90
2022-10-07T19:57:57.486Z,17.00
2022-10-07T20:01:07.026Z,16.90
2022-10-07T20:04:14.145Z,16.90
2022-10-07T20:07:18.082Z,16.90
2022-10-07T20:10:21.982Z,16.90
2022-10-07T20:13:28.713Z,16.80
2022-10-07T20:16:34.430Z,17.00
2022-10-07T20:19:37.934Z,16.90
2022-10-07T20:22:44.626Z,17.70
2022-10-07T20:25:50.456Z,17.00
2022-10-07T20:28:56.149Z,17.00
2022-10-07T20:32:00.692Z,17.00
2022-10-07T20:35:05.878Z,17.10
2022-10-07T20:38:09.617Z,17.00
2022-10-07T20:41:30.266Z,17.40
2022-10-07T20:44:33.590Z,17.00
2022-10-07T20:47:38.381Z,17.00
2022-10-07T20:50:41.723Z,17.90
2022-10-07T20:53:48.786Z,17.70
2022-10-07T20:56:53.214Z,16.90
2022-10-07T20:59:57.244Z,16.90
2022-10-07T21:03:02.069Z,16.80
2022-10-07T21:06:05.670Z,15.90
2022-10-07T21:09:10.987Z,16.70
2022-10-07T21:12:16.166Z,16.70
2022-10-07T21:15:20.158Z,16.60
2022-10-07T21:18:26.438Z,16.60
2022-10-07T21:21:29.800Z,16.60
2022-10-07T21:24:34.381Z,16.50
2022-10-07T21:27:38.335Z,16.50
2022-10-07T21:30:42.081Z,16.50
2022-10-07T21:33:48.753Z,15.80
2022-10-07T21:36:53.975Z,16.40
2022-10-07T21:39:57.301Z,17.50
2022-10-07T21:43:00.449Z,16.40
2022-10-07T21:46:04.254Z,16.30
2022-10-07T21:49:09.125Z,16.30
2022-10-07T21:52:12.318Z,16.00
2022-10-07T21:55:15.783Z,16.20
2022-10-07T21:58:20.095Z,16.20
2022-10-07T22:01:25.596Z,16.20
2022-10-07T22:04:30.770Z,16.20
2022-10-07T22:07:51.938Z,16.20
2022-10-07T22:11:01.458Z,16.20
2022-10-07T22:14:08.666Z,16.20
2022-10-07T22:17:14.901Z,16.20
2022-10-07T22:20:19.375Z,16.20
2022-10-07T22:23:22.462Z,16.30
2022-10-07T22:26:28.631Z,16.30
2022-10-07T22:29:31.754Z,16.20
2022-10-07T22:32:34.964Z,16.20
2022-10-07T22:35:41.686Z,16.20
2022-10-07T22:38:44.852Z,16.20
2022-10-07T22:41:47.903Z,16.10
2022-10-07T22:44:50.973Z,16.10
2022-10-07T22:47:54.158Z,16.10
2022-10-07T22:51:06.561Z,16.10
2022-10-07T22:54:12.572Z,16.80
2022-10-07T22:57:16.647Z,16.20
2022-10-07T23:00:21.036Z,16.00
2022-10-07T23:03:28.316Z,16.00
2022-10-07T23:06:35.732Z,15.20
2022-10-07T23:09:38.913Z,16.00
2022-10-07T23:12:42.556Z,16.00
2022-10-07T23:15:46.938Z,16.00
2022-10-07T23:18:53.603Z,16.00
2022-10-07T23:21:59.183Z,16.00
2022-10-07T23:25:04.386Z,16.00
2022-10-07T23:28:07.510Z,16.00
2022-10-07T23:31:14.175Z,16.00
2022-10-07T23:34:18.529Z,16.00
2022-10-07T23:37:23.003Z,16.10
2022-10-07T23:40:26.327Z,16.10
2022-10-07T23:43:31.125Z,16.10
2022-10-07T23:46:36.445Z,16.10
2022-10-07T23:49:39.973Z,16.10
2022-10-07T23:52:45.177Z,16.00
2022-10-07T23:55:50.772Z,16.00
2022-10-07T23:58:54.075Z,16.00
